Airfield :
LOGIN :

Register | Disclaimer

   EN    FR    IT 

 










Legend :    VFR   Marginal VFR   IFR   Intensive IFR   Very Intensive IFR
Visi :
Ceiling :
>= 8 km
>= 3000ft
5 to 8 km
1000 to 3000 ft
1500m to 5 km
500 to 1000 ft
800 to 1500m
200 to 500 ft
< 800m
< 200 ft
Symbols :   Thunderstorms  Fog  Heavy snow  Heavy precipitations  Wind > 20 kt
SIGMETs :     Misc.  Thunderstorms  Icing  Turbulence  Mountain Waves  Volcanic Ashes







- Airport Elevation : 13 ft
- IATA code : SNR
- Download approach charts


LFRZ - St-Nazaire

CURRENT METAR :
  • 220030Z AUTO 30008KT 260V350 9999 SCT032/// BKN041/// BKN066/// ///TCU 11/08 Q1021 TEMPO 27018G28KT 4000 SHRA BKN025CB

EXPIRED METARs :
  • 220000Z AUTO 29006KT 260V320 9999 FEW031/// SCT044/// ///CB 11/08 Q1021 TEMPO 27018G28KT 4000 SHRA
  • 212330Z AUTO 26009KT 9999 FEW035/// BKN110/// ///TCU 11/08 Q1021 TEMPO 27018G28KT 4000 SHRA BKN025CB
  • 212300Z AUTO 27010KT 9999 FEW037/// SCT044/// BKN052/// ///TCU 11/08 Q1021 TEMPO 26018G30KT 4000 SHRA BKN025CB
  • 212230Z AUTO 26009KT 9999 SCT041/// ///TCU 12/07 Q1020 TEMPO 26018G30KT 4000 SHRA BKN025CB
  • 212200Z AUTO 25008KT 9999 BKN042 BKN120 11/08 Q1020 TEMPO 26018G30KT 4000 SHRA BKN025CB

TAF TAF LFRZ
Valid from the 22 at 00:00 until the 23 at 00:00 UTC


212300Z 2200/2224 27009KT 9999 BKN030
TEMPO 2200/2208 27018G28KT 4000 SHRA BKN025CB
No reported NOTAMs for that airfield.
1 SIGMET reported for the Brest FIR (LFRR) :
 
Severe turbulence
LFRR SIGMET 9 VALID 212200/220200 LFPW
LFRR BREST FIR/UIR SEV TURB FCST WI N4915 W00615 - N5000 W00200 - N5000 W00015 - N4900 W00015 - N4815 W00345 SFC/FL060 STNR WKN=



MET'MAP, your aeronautical weather chart ! - Copyright ORBIFLY December 2007 - Disclaimer

ORBIFLY MET'MAP TEAM :

Programming & Development : Alexandra Zaïnal
Concept & Development : Baudouin d'Aumeries
Co-Development & Prog : Marc-Olivier Méhu
Technical & hardware support : Manuel Goepfert

Contact : metmap@orbifly.com




SOURCES & CREDITS :

   NOAA